sensor_id;sensor_type;location;lat;lon;timestamp;temperature;humidity
64468;DHT22;50853;46.836;16.820;2023-12-20T00:01:37;7.00;88.50
64468;DHT22;50853;46.836;16.820;2023-12-20T00:04:03;7.00;88.50
64468;DHT22;50853;46.836;16.820;2023-12-20T00:06:30;7.00;89.00
64468;DHT22;50853;46.836;16.820;2023-12-20T00:08:55;7.00;88.60
64468;DHT22;50853;46.836;16.820;2023-12-20T00:11:21;7.00;88.60
64468;DHT22;50853;46.836;16.820;2023-12-20T00:13:47;7.00;88.80
64468;DHT22;50853;46.836;16.820;2023-12-20T00:16:13;7.00;88.90
64468;DHT22;50853;46.836;16.820;2023-12-20T00:18:38;7.00;89.00
64468;DHT22;50853;46.836;16.820;2023-12-20T00:21:04;7.00;89.00
64468;DHT22;50853;46.836;16.820;2023-12-20T00:23:30;6.90;88.80
64468;DHT22;50853;46.836;16.820;2023-12-20T00:25:56;6.90;88.90
64468;DHT22;50853;46.836;16.820;2023-12-20T00:28:22;6.90;88.90
64468;DHT22;50853;46.836;16.820;2023-12-20T00:30:48;6.90;88.90
64468;DHT22;50853;46.836;16.820;2023-12-20T00:33:14;6.90;89.00
64468;DHT22;50853;46.836;16.820;2023-12-20T00:35:40;6.90;88.90
64468;DHT22;50853;46.836;16.820;2023-12-20T00:38:05;6.90;88.90
64468;DHT22;50853;46.836;16.820;2023-12-20T00:40:32;6.90;88.90
64468;DHT22;50853;46.836;16.820;2023-12-20T00:42:59;6.90;88.90
64468;DHT22;50853;46.836;16.820;2023-12-20T00:45:25;6.90;88.90
64468;DHT22;50853;46.836;16.820;2023-12-20T00:47:51;6.90;88.90
64468;DHT22;50853;46.836;16.820;2023-12-20T00:50:17;6.90;88.90
64468;DHT22;50853;46.836;16.820;2023-12-20T00:52:42;6.90;88.80
64468;DHT22;50853;46.836;16.820;2023-12-20T00:55:08;6.90;88.90
64468;DHT22;50853;46.836;16.820;2023-12-20T00:57:34;6.90;89.00
64468;DHT22;50853;46.836;16.820;2023-12-20T01:00:00;6.90;88.90
64468;DHT22;50853;46.836;16.820;2023-12-20T01:02:26;6.90;89.10
64468;DHT22;50853;46.836;16.820;2023-12-20T01:04:52;6.90;89.00
64468;DHT22;50853;46.836;16.820;2023-12-20T01:07:18;6.90;89.10
64468;DHT22;50853;46.836;16.820;2023-12-20T01:09:44;6.90;89.00
64468;DHT22;50853;46.836;16.820;2023-12-20T01:12:10;6.80;89.10
64468;DHT22;50853;46.836;16.820;2023-12-20T01:14:36;6.90;89.20
64468;DHT22;50853;46.836;16.820;2023-12-20T01:17:02;6.80;89.10
64468;DHT22;50853;46.836;16.820;2023-12-20T01:19:28;6.90;89.30
64468;DHT22;50853;46.836;16.820;2023-12-20T01:21:55;6.80;89.10
64468;DHT22;50853;46.836;16.820;2023-12-20T01:24:21;6.80;89.20
64468;DHT22;50853;46.836;16.820;2023-12-20T01:26:47;6.80;89.10
64468;DHT22;50853;46.836;16.820;2023-12-20T01:29:13;6.80;89.00
64468;DHT22;50853;46.836;16.820;2023-12-20T01:31:40;6.80;89.10
64468;DHT22;50853;46.836;16.820;2023-12-20T01:34:09;6.80;89.00
64468;DHT22;50853;46.836;16.820;2023-12-20T01:36:34;6.80;89.00
64468;DHT22;50853;46.836;16.820;2023-12-20T01:39:00;6.80;89.10
64468;DHT22;50853;46.836;16.820;2023-12-20T01:41:26;6.80;89.10
64468;DHT22;50853;46.836;16.820;2023-12-20T01:43:52;6.80;89.10
64468;DHT22;50853;46.836;16.820;2023-12-20T01:46:20;6.80;89.00
64468;DHT22;50853;46.836;16.820;2023-12-20T01:48:46;6.80;89.10
64468;DHT22;50853;46.836;16.820;2023-12-20T01:51:13;6.80;89.10
64468;DHT22;50853;46.836;16.820;2023-12-20T01:53:39;6.80;89.10
64468;DHT22;50853;46.836;16.820;2023-12-20T01:56:06;6.80;89.10
64468;DHT22;50853;46.836;16.820;2023-12-20T01:58:32;6.80;89.10
64468;DHT22;50853;46.836;16.820;2023-12-20T02:00:59;6.80;89.20
64468;DHT22;50853;46.836;16.820;2023-12-20T02:03:25;6.80;89.10
64468;DHT22;50853;46.836;16.820;2023-12-20T02:05:51;6.80;89.20
64468;DHT22;50853;46.836;16.820;2023-12-20T02:08:16;6.80;89.20
64468;DHT22;50853;46.836;16.820;2023-12-20T02:10:42;6.80;89.30
64468;DHT22;50853;46.836;16.820;2023-12-20T02:13:08;6.70;89.30
64468;DHT22;50853;46.836;16.820;2023-12-20T02:15:34;6.70;89.30
64468;DHT22;50853;46.836;16.820;2023-12-20T02:18:03;6.70;89.30
64468;DHT22;50853;46.836;16.820;2023-12-20T02:20:29;6.70;89.30
64468;DHT22;50853;46.836;16.820;2023-12-20T02:22:54;6.70;89.10
64468;DHT22;50853;46.836;16.820;2023-12-20T02:25:20;6.70;89.30
64468;DHT22;50853;46.836;16.820;2023-12-20T02:27:46;6.70;89.40
64468;DHT22;50853;46.836;16.820;2023-12-20T02:30:12;6.70;89.30
64468;DHT22;50853;46.836;16.820;2023-12-20T02:32:38;6.70;89.30
64468;DHT22;50853;46.836;16.820;2023-12-20T02:35:04;6.70;89.30
64468;DHT22;50853;46.836;16.820;2023-12-20T02:37:30;6.70;89.30
64468;DHT22;50853;46.836;16.820;2023-12-20T02:39:56;6.70;89.20
64468;DHT22;50853;46.836;16.820;2023-12-20T02:42:22;6.70;89.20
64468;DHT22;50853;46.836;16.820;2023-12-20T02:44:47;6.70;89.20
64468;DHT22;50853;46.836;16.820;2023-12-20T02:47:13;6.70;89.30
64468;DHT22;50853;46.836;16.820;2023-12-20T02:49:39;6.70;89.30
64468;DHT22;50853;46.836;16.820;2023-12-20T02:52:05;6.70;89.40
64468;DHT22;50853;46.836;16.820;2023-12-20T02:54:31;6.60;89.40
64468;DHT22;50853;46.836;16.820;2023-12-20T02:56:57;6.70;89.40
64468;DHT22;50853;46.836;16.820;2023-12-20T02:59:23;6.70;89.30
64468;DHT22;50853;46.836;16.820;2023-12-20T03:01:49;6.60;89.20
64468;DHT22;50853;46.836;16.820;2023-12-20T03:04:14;6.60;89.20
64468;DHT22;50853;46.836;16.820;2023-12-20T03:06:40;6.60;89.20
64468;DHT22;50853;46.836;16.820;2023-12-20T03:09:07;6.70;89.20
64468;DHT22;50853;46.836;16.820;2023-12-20T03:11:33;6.60;89.10
64468;DHT22;50853;46.836;16.820;2023-12-20T03:13:58;6.60;89.20
64468;DHT22;50853;46.836;16.820;2023-12-20T03:16:24;6.60;89.30
64468;DHT22;50853;46.836;16.820;2023-12-20T03:18:50;6.60;89.10
64468;DHT22;50853;46.836;16.820;2023-12-20T03:21:16;6.60;89.20
64468;DHT22;50853;46.836;16.820;2023-12-20T03:23:42;6.60;89.30
64468;DHT22;50853;46.836;16.820;2023-12-20T03:26:08;6.60;89.20
64468;DHT22;50853;46.836;16.820;2023-12-20T03:28:34;6.60;89.20
64468;DHT22;50853;46.836;16.820;2023-12-20T03:31:01;6.60;89.00
64468;DHT22;50853;46.836;16.820;2023-12-20T03:33:28;6.60;89.00
64468;DHT22;50853;46.836;16.820;2023-12-20T03:35:54;6.60;89.00
64468;DHT22;50853;46.836;16.820;2023-12-20T03:38:20;6.60;89.10
64468;DHT22;50853;46.836;16.820;2023-12-20T03:40:46;6.60;89.20
64468;DHT22;50853;46.836;16.820;2023-12-20T03:43:12;6.60;89.10
64468;DHT22;50853;46.836;16.820;2023-12-20T03:45:38;6.60;89.00
64468;DHT22;50853;46.836;16.820;2023-12-20T03:48:04;6.60;88.90
64468;DHT22;50853;46.836;16.820;2023-12-20T03:50:30;6.60;89.00
64468;DHT22;50853;46.836;16.820;2023-12-20T03:52:56;6.60;88.90
64468;DHT22;50853;46.836;16.820;2023-12-20T03:55:22;6.60;88.80
64468;DHT22;50853;46.836;16.820;2023-12-20T03:57:47;6.60;88.80
64468;DHT22;50853;46.836;16.820;2023-12-20T04:00:14;6.60;89.00
64468;DHT22;50853;46.836;16.820;2023-12-20T04:02:41;6.60;89.10
64468;DHT22;50853;46.836;16.820;2023-12-20T04:05:08;6.60;88.80
64468;DHT22;50853;46.836;16.820;2023-12-20T04:07:38;6.60;88.90
64468;DHT22;50853;46.836;16.820;2023-12-20T04:10:05;6.60;88.70
64468;DHT22;50853;46.836;16.820;2023-12-20T04:12:32;6.60;88.60
64468;DHT22;50853;46.836;16.820;2023-12-20T04:14:58;6.60;88.70
64468;DHT22;50853;46.836;16.820;2023-12-20T04:17:23;6.60;88.30
64468;DHT22;50853;46.836;16.820;2023-12-20T04:19:50;6.60;88.80
64468;DHT22;50853;46.836;16.820;2023-12-20T04:22:18;6.60;88.80
64468;DHT22;50853;46.836;16.820;2023-12-20T04:24:44;6.60;88.60
64468;DHT22;50853;46.836;16.820;2023-12-20T04:27:11;6.60;88.50
64468;DHT22;50853;46.836;16.820;2023-12-20T04:29:37;6.60;88.70
64468;DHT22;50853;46.836;16.820;2023-12-20T04:32:03;6.50;88.60
64468;DHT22;50853;46.836;16.820;2023-12-20T04:34:29;6.60;88.70
64468;DHT22;50853;46.836;16.820;2023-12-20T04:36:55;6.50;88.40
64468;DHT22;50853;46.836;16.820;2023-12-20T04:39:21;6.50;88.70
64468;DHT22;50853;46.836;16.820;2023-12-20T04:41:47;6.50;88.60
64468;DHT22;50853;46.836;16.820;2023-12-20T04:44:16;6.50;88.60
64468;DHT22;50853;46.836;16.820;2023-12-20T04:46:42;6.50;88.50
64468;DHT22;50853;46.836;16.820;2023-12-20T04:49:08;6.50;88.40
64468;DHT22;50853;46.836;16.820;2023-12-20T04:51:34;6.50;88.10
64468;DHT22;50853;46.836;16.820;2023-12-20T04:54:00;6.50;88.20
64468;DHT22;50853;46.836;16.820;2023-12-20T04:56:26;6.50;88.10
64468;DHT22;50853;46.836;16.820;2023-12-20T04:58:52;6.50;88.30
64468;DHT22;50853;46.836;16.820;2023-12-20T05:01:18;6.50;88.20
64468;DHT22;50853;46.836;16.820;2023-12-20T05:03:44;6.50;88.40
64468;DHT22;50853;46.836;16.820;2023-12-20T05:06:10;6.50;88.30
64468;DHT22;50853;46.836;16.820;2023-12-20T05:08:36;6.50;88.20
64468;DHT22;50853;46.836;16.820;2023-12-20T05:11:02;6.50;88.00
64468;DHT22;50853;46.836;16.820;2023-12-20T05:13:28;6.50;88.30
64468;DHT22;50853;46.836;16.820;2023-12-20T05:15:53;6.50;88.30
64468;DHT22;50853;46.836;16.820;2023-12-20T05:18:21;6.50;88.20
64468;DHT22;50853;46.836;16.820;2023-12-20T05:20:47;6.50;88.20
64468;DHT22;50853;46.836;16.820;2023-12-20T05:23:13;6.50;88.20
64468;DHT22;50853;46.836;16.820;2023-12-20T05:25:39;6.50;88.10
64468;DHT22;50853;46.836;16.820;2023-12-20T05:28:05;6.50;88.20
64468;DHT22;50853;46.836;16.820;2023-12-20T05:30:31;6.50;88.00
64468;DHT22;50853;46.836;16.820;2023-12-20T05:32:57;6.50;87.90
64468;DHT22;50853;46.836;16.820;2023-12-20T05:35:23;6.50;88.00
64468;DHT22;50853;46.836;16.820;2023-12-20T05:37:49;6.50;88.20
64468;DHT22;50853;46.836;16.820;2023-12-20T05:40:15;6.50;88.70
64468;DHT22;50853;46.836;16.820;2023-12-20T05:42:41;6.50;88.30
64468;DHT22;50853;46.836;16.820;2023-12-20T05:45:07;6.50;88.00
64468;DHT22;50853;46.836;16.820;2023-12-20T05:47:33;6.50;87.90
64468;DHT22;50853;46.836;16.820;2023-12-20T05:49:58;6.40;88.20
64468;DHT22;50853;46.836;16.820;2023-12-20T05:52:24;6.50;88.20
64468;DHT22;50853;46.836;16.820;2023-12-20T05:54:50;6.40;88.10
64468;DHT22;50853;46.836;16.820;2023-12-20T05:57:16;6.40;88.20
64468;DHT22;50853;46.836;16.820;2023-12-20T05:59:42;6.40;88.10
64468;DHT22;50853;46.836;16.820;2023-12-20T06:02:08;6.40;88.30
64468;DHT22;50853;46.836;16.820;2023-12-20T06:04:34;6.40;88.30
64468;DHT22;50853;46.836;16.820;2023-12-20T06:07:00;6.40;88.40
64468;DHT22;50853;46.836;16.820;2023-12-20T06:09:29;6.40;88.20
64468;DHT22;50853;46.836;16.820;2023-12-20T06:11:55;6.50;88.30
64468;DHT22;50853;46.836;16.820;2023-12-20T06:14:21;6.40;88.30
64468;DHT22;50853;46.836;16.820;2023-12-20T06:16:47;6.40;88.40
64468;DHT22;50853;46.836;16.820;2023-12-20T06:19:13;6.40;88.40
64468;DHT22;50853;46.836;16.820;2023-12-20T06:21:39;6.50;88.40
64468;DHT22;50853;46.836;16.820;2023-12-20T06:24:05;6.40;88.20
64468;DHT22;50853;46.836;16.820;2023-12-20T06:26:31;6.40;88.30
64468;DHT22;50853;46.836;16.820;2023-12-20T06:28:56;6.40;88.40
64468;DHT22;50853;46.836;16.820;2023-12-20T06:31:22;6.40;88.60
64468;DHT22;50853;46.836;16.820;2023-12-20T06:33:48;6.50;88.50
64468;DHT22;50853;46.836;16.820;2023-12-20T06:36:23;6.40;88.40
64468;DHT22;50853;46.836;16.820;2023-12-20T06:38:49;6.40;88.30
64468;DHT22;50853;46.836;16.820;2023-12-20T06:41:15;6.40;88.50
64468;DHT22;50853;46.836;16.820;2023-12-20T06:43:42;6.40;88.30
64468;DHT22;50853;46.836;16.820;2023-12-20T06:46:08;6.40;88.10
64468;DHT22;50853;46.836;16.820;2023-12-20T06:48:34;6.40;88.30
64468;DHT22;50853;46.836;16.820;2023-12-20T06:51:01;6.40;88.50
64468;DHT22;50853;46.836;16.820;2023-12-20T06:53:27;6.40;88.60
64468;DHT22;50853;46.836;16.820;2023-12-20T06:55:54;6.40;88.50
64468;DHT22;50853;46.836;16.820;2023-12-20T06:58:22;6.40;88.50
64468;DHT22;50853;46.836;16.820;2023-12-20T07:00:47;6.40;88.60
64468;DHT22;50853;46.836;16.820;2023-12-20T07:03:13;6.40;88.60
64468;DHT22;50853;46.836;16.820;2023-12-20T07:05:39;6.40;88.40
64468;DHT22;50853;46.836;16.820;2023-12-20T07:08:06;6.30;88.40
64468;DHT22;50853;46.836;16.820;2023-12-20T07:10:32;6.40;88.50
64468;DHT22;50853;46.836;16.820;2023-12-20T07:12:58;6.40;88.50
64468;DHT22;50853;46.836;16.820;2023-12-20T07:15:24;6.40;88.10
64468;DHT22;50853;46.836;16.820;2023-12-20T07:17:50;6.40;88.50
64468;DHT22;50853;46.836;16.820;2023-12-20T07:20:15;6.40;88.40
64468;DHT22;50853;46.836;16.820;2023-12-20T07:22:41;6.40;88.50
64468;DHT22;50853;46.836;16.820;2023-12-20T07:25:08;6.40;88.50
64468;DHT22;50853;46.836;16.820;2023-12-20T07:27:33;6.30;88.50
64468;DHT22;50853;46.836;16.820;2023-12-20T07:29:59;6.30;88.30
64468;DHT22;50853;46.836;16.820;2023-12-20T07:32:25;6.40;88.40
64468;DHT22;50853;46.836;16.820;2023-12-20T07:34:51;6.30;88.50
64468;DHT22;50853;46.836;16.820;2023-12-20T07:37:17;6.40;88.50
64468;DHT22;50853;46.836;16.820;2023-12-20T07:39:43;6.30;88.30
64468;DHT22;50853;46.836;16.820;2023-12-20T07:42:09;6.40;88.50
64468;DHT22;50853;46.836;16.820;2023-12-20T07:44:35;6.30;88.50
64468;DHT22;50853;46.836;16.820;2023-12-20T07:47:04;6.30;88.30
64468;DHT22;50853;46.836;16.820;2023-12-20T07:49:31;6.40;88.50
64468;DHT22;50853;46.836;16.820;2023-12-20T07:51:57;6.30;88.40
64468;DHT22;50853;46.836;16.820;2023-12-20T07:54:23;6.30;88.50
64468;DHT22;50853;46.836;16.820;2023-12-20T07:56:49;6.40;88.50
64468;DHT22;50853;46.836;16.820;2023-12-20T07:59:15;6.30;88.40
64468;DHT22;50853;46.836;16.820;2023-12-20T08:01:41;6.30;88.40
64468;DHT22;50853;46.836;16.820;2023-12-20T08:04:08;6.30;88.50
64468;DHT22;50853;46.836;16.820;2023-12-20T08:06:34;6.30;88.40
64468;DHT22;50853;46.836;16.820;2023-12-20T08:08:59;6.30;88.50
64468;DHT22;50853;46.836;16.820;2023-12-20T08:11:25;6.30;88.50
64468;DHT22;50853;46.836;16.820;2023-12-20T08:13:51;6.30;88.30
64468;DHT22;50853;46.836;16.820;2023-12-20T08:16:17;6.30;88.50
64468;DHT22;50853;46.836;16.820;2023-12-20T08:18:43;6.40;88.50
64468;DHT22;50853;46.836;16.820;2023-12-20T08:21:09;6.30;88.40
64468;DHT22;50853;46.836;16.820;2023-12-20T08:23:35;6.30;88.40
64468;DHT22;50853;46.836;16.820;2023-12-20T08:26:05;6.40;88.40
64468;DHT22;50853;46.836;16.820;2023-12-20T08:28:31;6.30;88.40
64468;DHT22;50853;46.836;16.820;2023-12-20T08:30:57;6.30;88.40
64468;DHT22;50853;46.836;16.820;2023-12-20T08:33:23;6.30;88.40
64468;DHT22;50853;46.836;16.820;2023-12-20T08:35:49;6.30;88.40
64468;DHT22;50853;46.836;16.820;2023-12-20T08:38:14;6.30;88.40
64468;DHT22;50853;46.836;16.820;2023-12-20T08:40:40;6.30;88.20
64468;DHT22;50853;46.836;16.820;2023-12-20T08:43:07;6.40;88.40
64468;DHT22;50853;46.836;16.820;2023-12-20T08:45:32;6.30;88.40
64468;DHT22;50853;46.836;16.820;2023-12-20T08:47:58;6.30;88.50
64468;DHT22;50853;46.836;16.820;2023-12-20T08:50:25;6.30;88.50
64468;DHT22;50853;46.836;16.820;2023-12-20T08:52:51;6.30;88.40
64468;DHT22;50853;46.836;16.820;2023-12-20T08:55:17;6.30;88.30
64468;DHT22;50853;46.836;16.820;2023-12-20T08:57:44;6.30;88.40
64468;DHT22;50853;46.836;16.820;2023-12-20T09:00:10;6.30;88.20
64468;DHT22;50853;46.836;16.820;2023-12-20T09:02:36;6.30;88.20
64468;DHT22;50853;46.836;16.820;2023-12-20T09:05:03;6.30;88.10
64468;DHT22;50853;46.836;16.820;2023-12-20T09:07:29;6.30;88.10
64468;DHT22;50853;46.836;16.820;2023-12-20T09:09:58;6.30;88.00
64468;DHT22;50853;46.836;16.820;2023-12-20T09:12:24;6.30;87.90
64468;DHT22;50853;46.836;16.820;2023-12-20T09:14:51;6.40;88.00
64468;DHT22;50853;46.836;16.820;2023-12-20T09:17:18;6.30;87.90
64468;DHT22;50853;46.836;16.820;2023-12-20T09:19:44;6.30;87.90
64468;DHT22;50853;46.836;16.820;2023-12-20T09:22:10;6.30;87.50
64468;DHT22;50853;46.836;16.820;2023-12-20T09:24:36;6.40;87.50
64468;DHT22;50853;46.836;16.820;2023-12-20T09:27:02;6.30;87.20
64468;DHT22;50853;46.836;16.820;2023-12-20T09:29:29;6.40;87.20
64468;DHT22;50853;46.836;16.820;2023-12-20T09:31:55;6.40;87.10
64468;DHT22;50853;46.836;16.820;2023-12-20T09:34:21;6.40;87.00
64468;DHT22;50853;46.836;16.820;2023-12-20T09:36:47;6.40;86.80
64468;DHT22;50853;46.836;16.820;2023-12-20T09:39:14;6.30;86.90
64468;DHT22;50853;46.836;16.820;2023-12-20T09:41:44;6.40;86.90
64468;DHT22;50853;46.836;16.820;2023-12-20T09:44:15;6.40;86.70
64468;DHT22;50853;46.836;16.820;2023-12-20T09:46:44;6.40;86.70
64468;DHT22;50853;46.836;16.820;2023-12-20T09:49:11;6.40;86.70
64468;DHT22;50853;46.836;16.820;2023-12-20T09:51:38;6.50;86.80
64468;DHT22;50853;46.836;16.820;2023-12-20T09:54:05;6.40;86.70
64468;DHT22;50853;46.836;16.820;2023-12-20T09:56:31;6.40;86.90
64468;DHT22;50853;46.836;16.820;2023-12-20T09:58:57;6.40;86.80
64468;DHT22;50853;46.836;16.820;2023-12-20T10:01:27;6.40;86.90
64468;DHT22;50853;46.836;16.820;2023-12-20T10:03:54;6.40;86.90
64468;DHT22;50853;46.836;16.820;2023-12-20T10:06:21;6.40;87.10
64468;DHT22;50853;46.836;16.820;2023-12-20T10:08:47;6.40;87.00
64468;DHT22;50853;46.836;16.820;2023-12-20T10:11:13;6.40;87.00
64468;DHT22;50853;46.836;16.820;2023-12-20T10:13:40;6.40;87.00
64468;DHT22;50853;46.836;16.820;2023-12-20T10:16:07;6.40;87.00
64468;DHT22;50853;46.836;16.820;2023-12-20T10:18:33;6.40;87.00
64468;DHT22;50853;46.836;16.820;2023-12-20T10:21:00;6.40;87.00
64468;DHT22;50853;46.836;16.820;2023-12-20T10:23:26;6.40;86.90
64468;DHT22;50853;46.836;16.820;2023-12-20T10:25:59;6.40;87.00
64468;DHT22;50853;46.836;16.820;2023-12-20T10:28:26;6.40;86.90
64468;DHT22;50853;46.836;16.820;2023-12-20T10:30:55;6.40;87.00
64468;DHT22;50853;46.836;16.820;2023-12-20T10:33:30;6.50;87.10
64468;DHT22;50853;46.836;16.820;2023-12-20T10:35:58;6.40;87.00
64468;DHT22;50853;46.836;16.820;2023-12-20T10:38:24;6.40;87.00
64468;DHT22;50853;46.836;16.820;2023-12-20T10:40:54;6.40;86.90
64468;DHT22;50853;46.836;16.820;2023-12-20T10:43:20;6.40;86.90
64468;DHT22;50853;46.836;16.820;2023-12-20T10:45:46;6.40;87.10
64468;DHT22;50853;46.836;16.820;2023-12-20T10:48:12;6.40;87.10
64468;DHT22;50853;46.836;16.820;2023-12-20T10:50:38;6.40;87.20
64468;DHT22;50853;46.836;16.820;2023-12-20T10:53:05;6.40;87.10
64468;DHT22;50853;46.836;16.820;2023-12-20T10:55:31;6.40;87.10
64468;DHT22;50853;46.836;16.820;2023-12-20T10:58:07;6.40;87.10
64468;DHT22;50853;46.836;16.820;2023-12-20T11:00:41;6.40;87.10
64468;DHT22;50853;46.836;16.820;2023-12-20T11:03:11;6.40;87.10
64468;DHT22;50853;46.836;16.820;2023-12-20T11:06:01;6.50;87.10
64468;DHT22;50853;46.836;16.820;2023-12-20T11:13:39;6.60;87.30
64468;DHT22;50853;46.836;16.820;2023-12-20T11:16:06;6.50;87.10
64468;DHT22;50853;46.836;16.820;2023-12-20T11:18:33;6.50;87.10
64468;DHT22;50853;46.836;16.820;2023-12-20T11:21:04;6.40;87.10
64468;DHT22;50853;46.836;16.820;2023-12-20T11:23:30;6.40;87.10
64468;DHT22;50853;46.836;16.820;2023-12-20T11:25:59;6.40;87.10
64468;DHT22;50853;46.836;16.820;2023-12-20T11:28:26;6.40;86.90
64468;DHT22;50853;46.836;16.820;2023-12-20T11:30:54;6.40;86.80
64468;DHT22;50853;46.836;16.820;2023-12-20T11:33:30;6.40;87.00
64468;DHT22;50853;46.836;16.820;2023-12-20T11:35:57;6.40;87.00
64468;DHT22;50853;46.836;16.820;2023-12-20T11:38:23;6.40;87.00
64468;DHT22;50853;46.836;16.820;2023-12-20T11:40:49;6.40;87.00
64468;DHT22;50853;46.836;16.820;2023-12-20T11:43:32;6.40;87.10
64468;DHT22;50853;46.836;16.820;2023-12-20T11:46:07;6.40;87.30
64468;DHT22;50853;46.836;16.820;2023-12-20T11:48:39;6.40;87.10
64468;DHT22;50853;46.836;16.820;2023-12-20T11:51:13;6.40;87.20
64468;DHT22;50853;46.836;16.820;2023-12-20T11:53:41;6.40;87.00
64468;DHT22;50853;46.836;16.820;2023-12-20T11:56:10;6.40;87.20
64468;DHT22;50853;46.836;16.820;2023-12-20T11:58:36;6.50;87.30
64468;DHT22;50853;46.836;16.820;2023-12-20T12:01:03;6.50;87.20
64468;DHT22;50853;46.836;16.820;2023-12-20T12:03:30;6.50;87.40
64468;DHT22;50853;46.836;16.820;2023-12-20T12:05:56;6.50;87.40
64468;DHT22;50853;46.836;16.820;2023-12-20T12:08:23;6.40;87.40
64468;DHT22;50853;46.836;16.820;2023-12-20T12:10:49;6.40;87.90
64468;DHT22;50853;46.836;16.820;2023-12-20T12:13:15;6.40;87.50
64468;DHT22;50853;46.836;16.820;2023-12-20T12:15:42;6.40;87.40
64468;DHT22;50853;46.836;16.820;2023-12-20T12:18:08;6.50;87.50
64468;DHT22;50853;46.836;16.820;2023-12-20T12:20:36;6.40;87.40
64468;DHT22;50853;46.836;16.820;2023-12-20T12:23:03;6.50;87.60
64468;DHT22;50853;46.836;16.820;2023-12-20T12:25:31;6.40;87.60
64468;DHT22;50853;46.836;16.820;2023-12-20T12:27:59;6.50;87.50
64468;DHT22;50853;46.836;16.820;2023-12-20T12:30:25;6.50;87.50
64468;DHT22;50853;46.836;16.820;2023-12-20T12:32:52;6.50;87.60
64468;DHT22;50853;46.836;16.820;2023-12-20T12:35:19;6.60;87.60
64468;DHT22;50853;46.836;16.820;2023-12-20T12:37:45;6.50;87.50
64468;DHT22;50853;46.836;16.820;2023-12-20T12:40:12;6.50;87.60
64468;DHT22;50853;46.836;16.820;2023-12-20T12:42:39;6.40;87.50
64468;DHT22;50853;46.836;16.820;2023-12-20T12:45:07;6.50;87.50
64468;DHT22;50853;46.836;16.820;2023-12-20T12:47:34;6.40;87.50
64468;DHT22;50853;46.836;16.820;2023-12-20T12:50:00;6.40;87.60
64468;DHT22;50853;46.836;16.820;2023-12-20T12:52:26;6.40;87.60
64468;DHT22;50853;46.836;16.820;2023-12-20T12:54:53;6.50;87.60
64468;DHT22;50853;46.836;16.820;2023-12-20T12:57:19;6.60;87.80
64468;DHT22;50853;46.836;16.820;2023-12-20T12:59:45;6.50;87.70
64468;DHT22;50853;46.836;16.820;2023-12-20T13:02:12;6.50;87.70
64468;DHT22;50853;46.836;16.820;2023-12-20T13:04:39;6.40;87.70
64468;DHT22;50853;46.836;16.820;2023-12-20T13:07:07;6.40;87.60
64468;DHT22;50853;46.836;16.820;2023-12-20T13:09:33;6.40;87.70
64468;DHT22;50853;46.836;16.820;2023-12-20T13:11:59;6.50;87.70
64468;DHT22;50853;46.836;16.820;2023-12-20T13:14:25;6.40;87.80
64468;DHT22;50853;46.836;16.820;2023-12-20T13:16:51;6.40;88.30
64468;DHT22;50853;46.836;16.820;2023-12-20T13:19:16;6.40;87.80
64468;DHT22;50853;46.836;16.820;2023-12-20T13:21:42;6.40;87.90
64468;DHT22;50853;46.836;16.820;2023-12-20T13:24:08;6.40;87.90
64468;DHT22;50853;46.836;16.820;2023-12-20T13:26:34;6.40;87.90
64468;DHT22;50853;46.836;16.820;2023-12-20T13:29:00;6.40;87.80
64468;DHT22;50853;46.836;16.820;2023-12-20T13:31:25;6.40;87.90
64468;DHT22;50853;46.836;16.820;2023-12-20T13:33:51;6.40;87.90
64468;DHT22;50853;46.836;16.820;2023-12-20T13:36:19;6.40;87.80
64468;DHT22;50853;46.836;16.820;2023-12-20T13:38:44;6.50;87.90
64468;DHT22;50853;46.836;16.820;2023-12-20T13:41:10;6.50;87.90
64468;DHT22;50853;46.836;16.820;2023-12-20T13:43:36;6.40;88.00
64468;DHT22;50853;46.836;16.820;2023-12-20T13:46:02;6.50;88.10
64468;DHT22;50853;46.836;16.820;2023-12-20T13:48:27;6.40;88.00
64468;DHT22;50853;46.836;16.820;2023-12-20T13:50:53;6.50;88.00
64468;DHT22;50853;46.836;16.820;2023-12-20T13:53:20;6.40;88.00
64468;DHT22;50853;46.836;16.820;2023-12-20T13:55:46;6.40;88.00
64468;DHT22;50853;46.836;16.820;2023-12-20T14:10:19;6.40;87.90
64468;DHT22;50853;46.836;16.820;2023-12-20T14:12:45;6.40;88.00
64468;DHT22;50853;46.836;16.820;2023-12-20T14:15:11;6.40;88.10
64468;DHT22;50853;46.836;16.820;2023-12-20T14:17:39;6.40;88.00
64468;DHT22;50853;46.836;16.820;2023-12-20T14:20:06;6.40;88.10
64468;DHT22;50853;46.836;16.820;2023-12-20T14:22:35;6.40;88.10
64468;DHT22;50853;46.836;16.820;2023-12-20T14:25:02;6.40;88.20
64468;DHT22;50853;46.836;16.820;2023-12-20T14:27:28;6.40;88.20
64468;DHT22;50853;46.836;16.820;2023-12-20T14:29:54;6.40;88.30
64468;DHT22;50853;46.836;16.820;2023-12-20T14:32:20;6.40;88.30
64468;DHT22;50853;46.836;16.820;2023-12-20T14:34:46;6.40;88.40
64468;DHT22;50853;46.836;16.820;2023-12-20T14:37:13;6.40;88.30
64468;DHT22;50853;46.836;16.820;2023-12-20T14:39:39;6.40;88.30
64468;DHT22;50853;46.836;16.820;2023-12-20T14:42:10;6.40;88.40
64468;DHT22;50853;46.836;16.820;2023-12-20T14:44:40;6.40;88.60
64468;DHT22;50853;46.836;16.820;2023-12-20T14:47:06;6.30;88.30
64468;DHT22;50853;46.836;16.820;2023-12-20T14:49:32;6.40;88.30
64468;DHT22;50853;46.836;16.820;2023-12-20T14:51:58;6.30;88.40
64468;DHT22;50853;46.836;16.820;2023-12-20T14:54:24;6.40;88.40
64468;DHT22;50853;46.836;16.820;2023-12-20T14:56:50;6.40;88.50
64468;DHT22;50853;46.836;16.820;2023-12-20T14:59:16;6.30;88.50
64468;DHT22;50853;46.836;16.820;2023-12-20T15:01:44;6.40;88.60
64468;DHT22;50853;46.836;16.820;2023-12-20T15:04:10;6.40;88.60
64468;DHT22;50853;46.836;16.820;2023-12-20T15:06:36;6.30;88.60
64468;DHT22;50853;46.836;16.820;2023-12-20T15:09:02;6.30;88.50
64468;DHT22;50853;46.836;16.820;2023-12-20T15:11:34;6.40;88.50
64468;DHT22;50853;46.836;16.820;2023-12-20T15:14:01;6.30;88.60
64468;DHT22;50853;46.836;16.820;2023-12-20T15:16:27;6.30;88.60
64468;DHT22;50853;46.836;16.820;2023-12-20T15:18:53;6.30;88.70
64468;DHT22;50853;46.836;16.820;2023-12-20T15:21:19;6.30;88.80
64468;DHT22;50853;46.836;16.820;2023-12-20T15:23:47;6.30;88.70
64468;DHT22;50853;46.836;16.820;2023-12-20T15:26:19;6.30;88.60
64468;DHT22;50853;46.836;16.820;2023-12-20T15:28:45;6.30;88.70
64468;DHT22;50853;46.836;16.820;2023-12-20T15:31:11;6.30;88.80
64468;DHT22;50853;46.836;16.820;2023-12-20T15:33:39;6.30;88.80
64468;DHT22;50853;46.836;16.820;2023-12-20T15:36:05;6.30;88.80
64468;DHT22;50853;46.836;16.820;2023-12-20T15:38:31;6.30;88.90
64468;DHT22;50853;46.836;16.820;2023-12-20T15:40:57;6.30;89.00
64468;DHT22;50853;46.836;16.820;2023-12-20T15:43:23;6.30;88.80